sensor_id;sensor_type;location;lat;lon;timestamp;pressure;altitude;pressure_sealevel;temperature;humidity
57894;BME280;43710;47.460;19.034;2023-09-07T03:59:01;101247.50;;;17.21;86.84
57894;BME280;43710;47.460;19.034;2023-09-07T04:02:04;101247.50;;;17.21;86.84
57894;BME280;43710;47.460;19.034;2023-09-07T04:05:07;101259.75;;;16.77;80.37
57894;BME280;43710;47.460;19.034;2023-09-07T04:08:09;101250.28;;;16.74;80.39
57894;BME280;43710;47.460;19.034;2023-09-07T04:11:11;101254.84;;;16.79;94.14
57894;BME280;43710;47.460;19.034;2023-09-07T04:14:15;101260.13;;;16.70;82.98
57894;BME280;43710;47.460;19.034;2023-09-07T04:17:18;101262.16;;;16.78;99.60
57894;BME280;43710;47.460;19.034;2023-09-07T04:20:20;101260.13;;;16.70;84.64
57894;BME280;43710;47.460;19.034;2023-09-07T04:23:22;101262.16;;;16.78;89.77
57894;BME280;43710;47.460;19.034;2023-09-07T04:26:25;101257.41;;;16.70;88.14
57894;BME280;43710;47.460;19.034;2023-09-07T04:29:28;101257.84;;;16.77;100.00
57894;BME280;43710;47.460;19.034;2023-09-07T04:32:30;101262.75;;;16.75;87.63
57894;BME280;43710;47.460;19.034;2023-09-07T04:35:33;101265.47;;;16.75;91.56
57894;BME280;43710;47.460;19.034;2023-09-07T04:38:36;101261.72;;;16.71;98.20
57894;BME280;43710;47.460;19.034;2023-09-07T04:41:38;101268.75;;;16.72;81.75
57894;BME280;43710;47.460;19.034;2023-09-07T04:44:40;101267.56;;;16.78;83.44
57894;BME280;43710;47.460;19.034;2023-09-07T04:47:43;101268.88;;;16.81;96.94
57894;BME280;43710;47.460;19.034;2023-09-07T04:50:46;101270.94;;;16.70;82.96
57894;BME280;43710;47.460;19.034;2023-09-07T04:53:48;101272.06;;;16.69;94.60
57894;BME280;43710;47.460;19.034;2023-09-07T04:56:51;101265.97;;;16.77;95.72
57894;BME280;43710;47.460;19.034;2023-09-07T04:59:54;101262.75;;;16.75;87.89
57894;BME280;43710;47.460;19.034;2023-09-07T05:02:56;101269.00;;;16.89;90.10
57894;BME280;43710;47.460;19.034;2023-09-07T05:05:59;101270.31;;;16.92;81.14
57894;BME280;43710;47.460;19.034;2023-09-07T05:09:02;101271.37;;;16.91;91.51
57894;BME280;43710;47.460;19.034;2023-09-07T05:12:05;101279.31;;;17.01;96.98
57894;BME280;43710;47.460;19.034;2023-09-07T05:15:08;101268.47;;;17.01;82.12
57894;BME280;43710;47.460;19.034;2023-09-07T05:18:10;101280.34;;;17.05;100.00
57894;BME280;43710;47.460;19.034;2023-09-07T05:21:16;101282.72;;;17.07;98.27
57894;BME280;43710;47.460;19.034;2023-09-07T05:24:18;101279.62;;;17.13;100.00
57894;BME280;43710;47.460;19.034;2023-09-07T05:27:21;101280.00;;;17.21;87.07
57894;BME280;43710;47.460;19.034;2023-09-07T05:30:24;101283.19;;;17.36;92.47
57894;BME280;43710;47.460;19.034;2023-09-07T05:33:26;101282.19;;;17.46;91.29
57894;BME280;43710;47.460;19.034;2023-09-07T05:36:29;101282.84;;;17.66;98.16
57894;BME280;43710;47.460;19.034;2023-09-07T05:39:31;101287.34;;;17.70;87.99
57894;BME280;43710;47.460;19.034;2023-09-07T05:42:34;101289.94;;;17.75;94.59
57894;BME280;43710;47.460;19.034;2023-09-07T05:45:39;101290.91;;;17.93;88.77
57894;BME280;43710;47.460;19.034;2023-09-07T05:48:42;101287.34;;;18.06;81.28
57894;BME280;43710;47.460;19.034;2023-09-07T05:51:44;101286.66;;;18.23;81.30
57894;BME280;43710;47.460;19.034;2023-09-07T05:54:47;101293.44;;;18.35;78.15
57894;BME280;43710;47.460;19.034;2023-09-07T05:57:49;101292.13;;;18.54;82.73
57894;BME280;43710;47.460;19.034;2023-09-07T06:00:53;101291.91;;;18.73;88.91
57894;BME280;43710;47.460;19.034;2023-09-07T06:03:56;101290.81;;;18.83;82.42
57894;BME280;43710;47.460;19.034;2023-09-07T06:06:59;101291.56;;;19.06;96.31
57894;BME280;43710;47.460;19.034;2023-09-07T06:10:02;101301.03;;;19.26;85.32
57894;BME280;43710;47.460;19.034;2023-09-07T06:13:04;101298.50;;;19.38;75.18
57894;BME280;43710;47.460;19.034;2023-09-07T06:16:07;101299.97;;;19.44;71.66
57894;BME280;43710;47.460;19.034;2023-09-07T06:19:10;101299.34;;;19.47;70.64
57894;BME280;43710;47.460;19.034;2023-09-07T06:22:12;101305.56;;;19.57;67.54
57894;BME280;43710;47.460;19.034;2023-09-07T06:25:14;101312.50;;;19.71;66.39
57894;BME280;43710;47.460;19.034;2023-09-07T06:28:17;101307.06;;;19.89;67.64
57894;BME280;43710;47.460;19.034;2023-09-07T06:31:20;101308.66;;;19.90;64.75
57894;BME280;43710;47.460;19.034;2023-09-07T06:34:22;101301.44;;;20.03;63.93
57894;BME280;43710;47.460;19.034;2023-09-07T06:37:25;101311.87;;;20.01;65.37
57894;BME280;43710;47.460;19.034;2023-09-07T06:40:28;101314.13;;;20.07;74.50
57894;BME280;43710;47.460;19.034;2023-09-07T06:43:31;101310.41;;;20.03;64.68
57894;BME280;43710;47.460;19.034;2023-09-07T06:46:35;101309.78;;;20.06;64.36
57894;BME280;43710;47.460;19.034;2023-09-07T06:49:38;101312.16;;;20.25;63.75
57894;BME280;43710;47.460;19.034;2023-09-07T06:52:41;101312.63;;;20.36;68.28
57894;BME280;43710;47.460;19.034;2023-09-07T06:55:43;101315.66;;;20.52;78.33
57894;BME280;43710;47.460;19.034;2023-09-07T06:58:46;101315.00;;;20.63;65.78
57894;BME280;43710;47.460;19.034;2023-09-07T07:01:48;101323.62;;;20.65;64.69
57894;BME280;43710;47.460;19.034;2023-09-07T07:04:51;101318.00;;;20.71;72.02
57894;BME280;43710;47.460;19.034;2023-09-07T07:07:53;101322.47;;;20.75;72.68
57894;BME280;43710;47.460;19.034;2023-09-07T07:10:56;101320.03;;;20.82;71.63
57894;BME280;43710;47.460;19.034;2023-09-07T07:13:58;101325.31;;;20.87;63.60
57894;BME280;43710;47.460;19.034;2023-09-07T07:17:01;101324.16;;;20.97;67.99
57894;BME280;43710;47.460;19.034;2023-09-07T07:20:07;101325.44;;;21.00;62.81
57894;BME280;43710;47.460;19.034;2023-09-07T07:23:11;101317.53;;;21.07;72.69
57894;BME280;43710;47.460;19.034;2023-09-07T07:26:14;101323.25;;;21.23;67.00
57894;BME280;43710;47.460;19.034;2023-09-07T07:29:18;101322.09;;;21.24;66.46
57894;BME280;43710;47.460;19.034;2023-09-07T07:32:20;101322.41;;;21.22;63.37
57894;BME280;43710;47.460;19.034;2023-09-07T07:35:23;101316.44;;;21.29;62.22
57894;BME280;43710;47.460;19.034;2023-09-07T07:38:25;101319.88;;;21.26;62.36
57894;BME280;43710;47.460;19.034;2023-09-07T07:41:29;101327.19;;;21.34;62.98
57894;BME280;43710;47.460;19.034;2023-09-07T07:44:32;101324.22;;;21.48;65.73
57894;BME280;43710;47.460;19.034;2023-09-07T07:47:36;101322.13;;;21.53;62.17
57894;BME280;43710;47.460;19.034;2023-09-07T07:50:38;101323.19;;;21.61;65.33
57894;BME280;43710;47.460;19.034;2023-09-07T07:53:44;101315.47;;;21.63;63.29
57894;BME280;43710;47.460;19.034;2023-09-07T07:56:46;101320.66;;;21.77;66.96
57894;BME280;43710;47.460;19.034;2023-09-07T07:59:49;101319.38;;;21.74;66.46
57894;BME280;43710;47.460;19.034;2023-09-07T08:02:51;101316.47;;;21.79;64.40
57894;BME280;43710;47.460;19.034;2023-09-07T08:05:54;101318.19;;;21.84;63.26
57894;BME280;43710;47.460;19.034;2023-09-07T08:08:57;101318.19;;;21.84;60.53
57894;BME280;43710;47.460;19.034;2023-09-07T08:11:59;101316.06;;;21.90;65.33
57894;BME280;43710;47.460;19.034;2023-09-07T08:15:06;101320.72;;;21.89;63.27
57894;BME280;43710;47.460;19.034;2023-09-07T08:18:10;101311.22;;;21.95;60.18
57894;BME280;43710;47.460;19.034;2023-09-07T08:21:14;101318.03;;;22.01;65.58
57894;BME280;43710;47.460;19.034;2023-09-07T08:24:18;101318.06;;;22.22;59.51
57894;BME280;43710;47.460;19.034;2023-09-07T08:27:21;101317.59;;;22.20;59.68
57894;BME280;43710;47.460;19.034;2023-09-07T08:30:24;101313.44;;;22.35;58.92
57894;BME280;43710;47.460;19.034;2023-09-07T08:33:27;101310.22;;;22.33;61.80
57894;BME280;43710;47.460;19.034;2023-09-07T08:36:38;101313.44;;;22.35;62.20
57894;BME280;43710;47.460;19.034;2023-09-07T08:39:40;101311.50;;;22.48;57.74
57894;BME280;43710;47.460;19.034;2023-09-07T08:42:42;101308.22;;;22.55;59.47
57894;BME280;43710;47.460;19.034;2023-09-07T08:45:53;101303.34;;;22.60;56.34
57894;BME280;43710;47.460;19.034;2023-09-07T08:49:00;101303.03;;;22.62;59.56
57894;BME280;43710;47.460;19.034;2023-09-07T08:52:04;101298.91;;;22.56;58.66
57894;BME280;43710;47.460;19.034;2023-09-07T08:55:08;101292.62;;;22.67;56.63
57894;BME280;43710;47.460;19.034;2023-09-07T08:58:11;101289.59;;;22.69;56.31
57894;BME280;43710;47.460;19.034;2023-09-07T09:01:13;101291.97;;;22.70;55.13
57894;BME280;43710;47.460;19.034;2023-09-07T09:04:16;101294.81;;;22.74;56.84
57894;BME280;43710;47.460;19.034;2023-09-07T09:07:19;101290.50;;;22.85;56.18
57894;BME280;43710;47.460;19.034;2023-09-07T09:10:21;101283.22;;;22.89;53.03
57894;BME280;43710;47.460;19.034;2023-09-07T09:13:29;101291.75;;;22.88;57.85
57894;BME280;43710;47.460;19.034;2023-09-07T09:16:31;101289.72;;;22.97;58.12
57894;BME280;43710;47.460;19.034;2023-09-07T09:19:36;101272.41;;;23.05;54.69
57894;BME280;43710;47.460;19.034;2023-09-07T09:22:39;101277.66;;;23.10;53.57
57894;BME280;43710;47.460;19.034;2023-09-07T09:25:41;101273.66;;;23.08;53.61
57894;BME280;43710;47.460;19.034;2023-09-07T09:28:45;101272.38;;;23.17;55.91
57894;BME280;43710;47.460;19.034;2023-09-07T09:31:48;101279.81;;;23.17;53.79
57894;BME280;43710;47.460;19.034;2023-09-07T09:34:50;101271.28;;;23.18;53.10
57894;BME280;43710;47.460;19.034;2023-09-07T09:37:54;101271.47;;;23.26;55.49
57894;BME280;43710;47.460;19.034;2023-09-07T09:40:56;101266.69;;;23.35;51.82
57894;BME280;43710;47.460;19.034;2023-09-07T09:43:59;101271.69;;;23.33;53.42
57894;BME280;43710;47.460;19.034;2023-09-07T09:47:02;101266.22;;;23.33;52.79
57894;BME280;43710;47.460;19.034;2023-09-07T09:50:08;101274.06;;;23.47;55.38
57894;BME280;43710;47.460;19.034;2023-09-07T09:53:12;101270.81;;;23.57;49.54
57894;BME280;43710;47.460;19.034;2023-09-07T09:56:18;101276.88;;;23.62;50.29
57894;BME280;43710;47.460;19.034;2023-09-07T09:59:22;101272.78;;;23.68;53.09
57894;BME280;43710;47.460;19.034;2023-09-07T10:02:25;101265.13;;;23.74;48.71
57894;BME280;43710;47.460;19.034;2023-09-07T10:05:30;101259.53;;;23.71;49.85
57894;BME280;43710;47.460;19.034;2023-09-07T10:08:33;101261.47;;;23.70;48.90
57894;BME280;43710;47.460;19.034;2023-09-07T10:11:37;101267.59;;;23.67;48.54
57894;BME280;43710;47.460;19.034;2023-09-07T10:14:41;101260.34;;;23.71;48.87
57894;BME280;43710;47.460;19.034;2023-09-07T10:17:44;101259.28;;;23.76;46.30
57894;BME280;43710;47.460;19.034;2023-09-07T10:20:56;101257.34;;;23.76;52.63
57894;BME280;43710;47.460;19.034;2023-09-07T10:24:01;101259.16;;;23.84;48.17
57894;BME280;43710;47.460;19.034;2023-09-07T10:27:05;101258.09;;;23.89;50.44
57894;BME280;43710;47.460;19.034;2023-09-07T10:30:11;101251.47;;;23.90;47.88
57894;BME280;43710;47.460;19.034;2023-09-07T10:33:21;101250.72;;;24.05;49.42
57894;BME280;43710;47.460;19.034;2023-09-07T10:36:25;101244.78;;;24.03;48.02
57894;BME280;43710;47.460;19.034;2023-09-07T10:39:31;101241.69;;;24.05;50.36
57894;BME280;43710;47.460;19.034;2023-09-07T10:42:34;101241.81;;;24.24;48.55
57894;BME280;43710;47.460;19.034;2023-09-07T10:45:36;101238.72;;;24.26;47.79
57894;BME280;43710;47.460;19.034;2023-09-07T10:48:38;101237.13;;;24.25;47.83
57894;BME280;43710;47.460;19.034;2023-09-07T10:51:44;101235.28;;;24.29;45.28
57894;BME280;43710;47.460;19.034;2023-09-07T10:54:56;101236.84;;;24.30;46.66
57894;BME280;43710;47.460;19.034;2023-09-07T10:58:00;101229.00;;;24.28;47.65
57894;BME280;43710;47.460;19.034;2023-09-07T11:01:04;101227.75;;;24.26;45.26
57894;BME280;43710;47.460;19.034;2023-09-07T11:04:09;101222.34;;;24.29;47.70
57894;BME280;43710;47.460;19.034;2023-09-07T11:07:14;101225.38;;;24.40;45.66
57894;BME280;43710;47.460;19.034;2023-09-07T11:10:16;101222.03;;;24.47;45.85
57894;BME280;43710;47.460;19.034;2023-09-07T11:13:19;101221.94;;;24.43;44.96
57894;BME280;43710;47.460;19.034;2023-09-07T11:16:24;101218.66;;;24.53;44.34
57894;BME280;43710;47.460;19.034;2023-09-07T11:19:27;101208.78;;;24.49;43.18
57894;BME280;43710;47.460;19.034;2023-09-07T11:22:29;101212.69;;;24.48;44.17
57894;BME280;43710;47.460;19.034;2023-09-07T11:25:37;101196.16;;;24.44;45.03
57894;BME280;43710;47.460;19.034;2023-09-07T11:28:40;101201.25;;;24.46;46.57
57894;BME280;43710;47.460;19.034;2023-09-07T11:31:44;101197.56;;;24.54;43.68
57894;BME280;43710;47.460;19.034;2023-09-07T11:34:51;101195.53;;;24.51;45.04
57894;BME280;43710;47.460;19.034;2023-09-07T11:38:02;101197.28;;;24.59;44.67
57894;BME280;43710;47.460;19.034;2023-09-07T11:41:10;101194.19;;;24.60;45.18
57894;BME280;43710;47.460;19.034;2023-09-07T11:44:12;101188.63;;;24.57;44.05
57894;BME280;43710;47.460;19.034;2023-09-07T11:47:15;101179.78;;;24.64;44.17
57894;BME280;43710;47.460;19.034;2023-09-07T11:50:18;101182.06;;;24.61;44.10
57894;BME280;43710;47.460;19.034;2023-09-07T11:53:21;101178.25;;;24.66;44.49
57894;BME280;43710;47.460;19.034;2023-09-07T11:56:24;101176.72;;;24.84;43.70
57894;BME280;43710;47.460;19.034;2023-09-07T11:59:27;101175.22;;;24.87;42.11
57894;BME280;43710;47.460;19.034;2023-09-07T12:02:46;101175.63;;;24.89;42.44
57894;BME280;43710;47.460;19.034;2023-09-07T12:05:49;101165.66;;;24.81;42.67
57894;BME280;43710;47.460;19.034;2023-09-07T12:09:05;101168.28;;;24.93;43.83
57894;BME280;43710;47.460;19.034;2023-09-07T12:12:19;101172.97;;;24.93;43.68
57894;BME280;43710;47.460;19.034;2023-09-07T12:15:22;101163.31;;;24.99;44.53
57894;BME280;43710;47.460;19.034;2023-09-07T12:18:24;101171.19;;;25.00;44.67
57894;BME280;43710;47.460;19.034;2023-09-07T12:21:27;101162.16;;;25.00;43.46
57894;BME280;43710;47.460;19.034;2023-09-07T12:24:29;101164.41;;;24.94;41.95
57894;BME280;43710;47.460;19.034;2023-09-07T12:27:33;101157.31;;;24.93;42.84
57894;BME280;43710;47.460;19.034;2023-09-07T12:30:54;101157.09;;;25.02;43.16
57894;BME280;43710;47.460;19.034;2023-09-07T12:33:56;101158.25;;;25.01;42.34
57894;BME280;43710;47.460;19.034;2023-09-07T12:37:00;101164.00;;;25.12;39.98
57894;BME280;43710;47.460;19.034;2023-09-07T12:40:06;101156.00;;;25.06;40.49
57894;BME280;43710;47.460;19.034;2023-09-07T12:43:15;101154.03;;;25.03;40.54
57894;BME280;43710;47.460;19.034;2023-09-07T12:46:18;101155.94;;;25.03;42.86
57894;BME280;43710;47.460;19.034;2023-09-07T12:49:21;101143.44;;;25.21;40.02
57894;BME280;43710;47.460;19.034;2023-09-07T12:52:23;101146.19;;;25.21;41.21
57894;BME280;43710;47.460;19.034;2023-09-07T12:55:25;101137.16;;;25.21;40.91
57894;BME280;43710;47.460;19.034;2023-09-07T12:58:28;101132.59;;;25.28;41.07
57894;BME280;43710;47.460;19.034;2023-09-07T13:01:30;101127.69;;;25.18;41.12
57894;BME280;43710;47.460;19.034;2023-09-07T13:04:33;101124.66;;;25.23;40.90
57894;BME280;43710;47.460;19.034;2023-09-07T13:07:36;101128.47;;;25.19;39.95
57894;BME280;43710;47.460;19.034;2023-09-07T13:10:39;101133.62;;;25.20;40.62
57894;BME280;43710;47.460;19.034;2023-09-07T13:13:42;101125.06;;;25.25;41.01
57894;BME280;43710;47.460;19.034;2023-09-07T13:16:44;101135.53;;;25.20;40.20
57894;BME280;43710;47.460;19.034;2023-09-07T13:19:46;101122.06;;;25.30;40.97
57894;BME280;43710;47.460;19.034;2023-09-07T13:22:50;101128.47;;;25.38;39.72
57894;BME280;43710;47.460;19.034;2023-09-07T13:25:52;101131.94;;;25.35;40.12
57894;BME280;43710;47.460;19.034;2023-09-07T13:28:54;101128.41;;;25.35;39.55
57894;BME280;43710;47.460;19.034;2023-09-07T13:31:57;101128.13;;;25.40;41.90
57894;BME280;43710;47.460;19.034;2023-09-07T13:35:00;101126.03;;;25.33;37.12
57894;BME280;43710;47.460;19.034;2023-09-07T13:38:03;101120.53;;;25.33;38.76
57894;BME280;43710;47.460;19.034;2023-09-07T13:41:05;101113.22;;;25.41;40.21
57894;BME280;43710;47.460;19.034;2023-09-07T13:44:07;101111.16;;;25.34;40.05
57894;BME280;43710;47.460;19.034;2023-09-07T13:47:10;101115.66;;;25.46;40.42
57894;BME280;43710;47.460;19.034;2023-09-07T13:50:12;101110.19;;;25.46;39.37
57894;BME280;43710;47.460;19.034;2023-09-07T13:53:14;101120.38;;;25.45;41.04
57894;BME280;43710;47.460;19.034;2023-09-07T13:56:20;101106.66;;;25.45;39.93
57894;BME280;43710;47.460;19.034;2023-09-07T13:59:22;101102.75;;;25.46;40.23
57894;BME280;43710;47.460;19.034;2023-09-07T14:02:26;101115.53;;;25.39;40.50
57894;BME280;43710;47.460;19.034;2023-09-07T14:05:29;101101.03;;;25.38;40.56
57894;BME280;43710;47.460;19.034;2023-09-07T14:08:31;101094.87;;;25.45;40.86
57894;BME280;43710;47.460;19.034;2023-09-07T14:11:35;101098.78;;;25.44;40.92
57894;BME280;43710;47.460;19.034;2023-09-07T14:14:38;101094.87;;;25.45;40.90
57894;BME280;43710;47.460;19.034;2023-09-07T14:17:40;101094.16;;;25.48;40.40
57894;BME280;43710;47.460;19.034;2023-09-07T14:20:42;101095.44;;;25.54;39.41
57894;BME280;43710;47.460;19.034;2023-09-07T14:23:45;101088.84;;;25.59;39.09
57894;BME280;43710;47.460;19.034;2023-09-07T14:26:47;101091.13;;;25.53;40.30
57894;BME280;43710;47.460;19.034;2023-09-07T14:29:50;101095.13;;;25.59;38.98
57894;BME280;43710;47.460;19.034;2023-09-07T14:32:52;101096.59;;;25.53;40.16
57894;BME280;43710;47.460;19.034;2023-09-07T14:35:55;101082.44;;;25.51;40.50
57894;BME280;43710;47.460;19.034;2023-09-07T14:38:57;101081.66;;;25.50;40.02
57894;BME280;43710;47.460;19.034;2023-09-07T14:42:00;101082.56;;;25.58;40.00
57894;BME280;43710;47.460;19.034;2023-09-07T14:45:03;101078.06;;;25.46;42.13
57894;BME280;43710;47.460;19.034;2023-09-07T14:48:06;101081.22;;;25.48;39.78
57894;BME280;43710;47.460;19.034;2023-09-07T14:51:08;101073.03;;;25.52;41.28
57894;BME280;43710;47.460;19.034;2023-09-07T14:54:11;101068.78;;;25.54;40.06
57894;BME280;43710;47.460;19.034;2023-09-07T14:57:14;101076.56;;;25.52;39.32
57894;BME280;43710;47.460;19.034;2023-09-07T15:00:20;101078.59;;;25.55;41.81
57894;BME280;43710;47.460;19.034;2023-09-07T15:03:24;101077.75;;;25.51;39.39
57894;BME280;43710;47.460;19.034;2023-09-07T15:06:27;101072.13;;;25.44;38.87
57894;BME280;43710;47.460;19.034;2023-09-07T15:09:31;101075.78;;;25.52;39.58
